sensor_id;sensor_type;location;lat;lon;timestamp;temperature;humidity
35563;DHT22;21665;40.108;18.302;2023-11-18T00:02:05;13.60;99.90
35563;DHT22;21665;40.108;18.302;2023-11-18T00:04:31;13.50;99.90
35563;DHT22;21665;40.108;18.302;2023-11-18T00:06:57;13.40;99.90
35563;DHT22;21665;40.108;18.302;2023-11-18T00:09:25;13.30;99.90
35563;DHT22;21665;40.108;18.302;2023-11-18T00:11:52;13.20;99.90
35563;DHT22;21665;40.108;18.302;2023-11-18T00:14:18;13.10;99.90
35563;DHT22;21665;40.108;18.302;2023-11-18T00:16:47;13.10;99.90
35563;DHT22;21665;40.108;18.302;2023-11-18T00:19:13;13.10;99.90
35563;DHT22;21665;40.108;18.302;2023-11-18T00:21:39;13.00;99.90
35563;DHT22;21665;40.108;18.302;2023-11-18T00:24:06;13.00;99.90
35563;DHT22;21665;40.108;18.302;2023-11-18T00:26:37;12.90;99.90
35563;DHT22;21665;40.108;18.302;2023-11-18T00:29:03;12.90;99.90
35563;DHT22;21665;40.108;18.302;2023-11-18T00:31:30;12.90;99.90
35563;DHT22;21665;40.108;18.302;2023-11-18T00:33:56;12.80;99.90
35563;DHT22;21665;40.108;18.302;2023-11-18T00:36:22;12.80;99.90
35563;DHT22;21665;40.108;18.302;2023-11-18T00:38:48;12.80;99.90
35563;DHT22;21665;40.108;18.302;2023-11-18T00:41:15;12.80;99.90
35563;DHT22;21665;40.108;18.302;2023-11-18T00:43:43;12.80;99.90
35563;DHT22;21665;40.108;18.302;2023-11-18T00:46:10;12.90;99.90
35563;DHT22;21665;40.108;18.302;2023-11-18T00:48:38;12.90;99.90
35563;DHT22;21665;40.108;18.302;2023-11-18T00:51:06;12.90;99.90
35563;DHT22;21665;40.108;18.302;2023-11-18T00:53:33;12.80;99.90
35563;DHT22;21665;40.108;18.302;2023-11-18T00:56:00;12.70;99.90
35563;DHT22;21665;40.108;18.302;2023-11-18T00:58:27;12.70;99.90
35563;DHT22;21665;40.108;18.302;2023-11-18T01:00:55;12.70;99.90
35563;DHT22;21665;40.108;18.302;2023-11-18T01:03:21;12.60;99.90
35563;DHT22;21665;40.108;18.302;2023-11-18T01:05:47;12.60;99.90
35563;DHT22;21665;40.108;18.302;2023-11-18T01:08:14;12.60;99.90
35563;DHT22;21665;40.108;18.302;2023-11-18T01:10:40;12.60;99.90
35563;DHT22;21665;40.108;18.302;2023-11-18T01:13:06;12.50;99.90
35563;DHT22;21665;40.108;18.302;2023-11-18T01:15:35;12.50;99.90
35563;DHT22;21665;40.108;18.302;2023-11-18T01:18:01;12.50;99.90
35563;DHT22;21665;40.108;18.302;2023-11-18T01:20:28;12.50;99.90
35563;DHT22;21665;40.108;18.302;2023-11-18T01:22:54;12.50;99.90
35563;DHT22;21665;40.108;18.302;2023-11-18T01:25:21;12.60;99.90
35563;DHT22;21665;40.108;18.302;2023-11-18T01:27:49;12.60;99.90
35563;DHT22;21665;40.108;18.302;2023-11-18T01:30:16;12.60;99.90
35563;DHT22;21665;40.108;18.302;2023-11-18T01:32:42;12.60;99.90
35563;DHT22;21665;40.108;18.302;2023-11-18T01:35:11;12.50;99.90
35563;DHT22;21665;40.108;18.302;2023-11-18T01:37:38;12.60;99.90
35563;DHT22;21665;40.108;18.302;2023-11-18T01:40:06;12.70;99.90
35563;DHT22;21665;40.108;18.302;2023-11-18T01:42:34;12.70;99.90
35563;DHT22;21665;40.108;18.302;2023-11-18T01:45:00;12.70;99.90
35563;DHT22;21665;40.108;18.302;2023-11-18T01:47:32;12.70;99.90
35563;DHT22;21665;40.108;18.302;2023-11-18T01:50:00;12.70;99.90
35563;DHT22;21665;40.108;18.302;2023-11-18T01:52:29;12.80;99.90
35563;DHT22;21665;40.108;18.302;2023-11-18T01:54:56;12.80;99.90
35563;DHT22;21665;40.108;18.302;2023-11-18T01:57:23;12.90;99.90
35563;DHT22;21665;40.108;18.302;2023-11-18T01:59:50;12.90;99.90
35563;DHT22;21665;40.108;18.302;2023-11-18T02:02:17;13.00;99.90
35563;DHT22;21665;40.108;18.302;2023-11-18T02:04:47;13.00;99.90
35563;DHT22;21665;40.108;18.302;2023-11-18T02:07:17;13.00;99.90
35563;DHT22;21665;40.108;18.302;2023-11-18T02:09:44;13.00;99.90
35563;DHT22;21665;40.108;18.302;2023-11-18T02:14:45;13.00;99.90
35563;DHT22;21665;40.108;18.302;2023-11-18T02:17:14;12.90;99.90
35563;DHT22;21665;40.108;18.302;2023-11-18T02:19:43;12.90;99.90
35563;DHT22;21665;40.108;18.302;2023-11-18T02:22:12;12.90;99.90
35563;DHT22;21665;40.108;18.302;2023-11-18T02:24:41;12.90;99.90
35563;DHT22;21665;40.108;18.302;2023-11-18T02:27:08;12.80;99.90
35563;DHT22;21665;40.108;18.302;2023-11-18T02:29:40;12.80;99.90
35563;DHT22;21665;40.108;18.302;2023-11-18T02:32:32;12.70;99.90
35563;DHT22;21665;40.108;18.302;2023-11-18T02:35:25;12.80;99.90
35563;DHT22;21665;40.108;18.302;2023-11-18T02:37:55;12.70;99.90
35563;DHT22;21665;40.108;18.302;2023-11-18T02:40:39;12.70;99.90
35563;DHT22;21665;40.108;18.302;2023-11-18T02:43:07;12.70;99.90
35563;DHT22;21665;40.108;18.302;2023-11-18T02:45:36;12.80;99.90
35563;DHT22;21665;40.108;18.302;2023-11-18T02:48:04;12.90;99.90
35563;DHT22;21665;40.108;18.302;2023-11-18T02:50:33;13.00;99.90
35563;DHT22;21665;40.108;18.302;2023-11-18T02:53:02;13.00;99.90
35563;DHT22;21665;40.108;18.302;2023-11-18T02:55:29;13.00;99.90
35563;DHT22;21665;40.108;18.302;2023-11-18T02:57:55;13.00;99.90
35563;DHT22;21665;40.108;18.302;2023-11-18T03:00:23;12.90;99.90
35563;DHT22;21665;40.108;18.302;2023-11-18T03:02:50;12.90;99.90
35563;DHT22;21665;40.108;18.302;2023-11-18T03:05:21;13.00;99.90
35563;DHT22;21665;40.108;18.302;2023-11-18T03:07:48;12.90;99.90
35563;DHT22;21665;40.108;18.302;2023-11-18T03:10:21;12.90;99.90
35563;DHT22;21665;40.108;18.302;2023-11-18T03:12:51;12.80;99.90
35563;DHT22;21665;40.108;18.302;2023-11-18T03:15:23;12.80;99.90
35563;DHT22;21665;40.108;18.302;2023-11-18T03:17:50;12.80;99.90
35563;DHT22;21665;40.108;18.302;2023-11-18T03:20:21;12.80;99.90
35563;DHT22;21665;40.108;18.302;2023-11-18T03:22:50;12.70;99.90
35563;DHT22;21665;40.108;18.302;2023-11-18T03:25:19;12.70;99.90
35563;DHT22;21665;40.108;18.302;2023-11-18T03:27:54;12.70;99.90
35563;DHT22;21665;40.108;18.302;2023-11-18T03:30:23;12.70;99.90
35563;DHT22;21665;40.108;18.302;2023-11-18T03:32:50;12.70;99.90
35563;DHT22;21665;40.108;18.302;2023-11-18T03:35:16;12.70;99.90
35563;DHT22;21665;40.108;18.302;2023-11-18T03:37:42;12.60;99.90
35563;DHT22;21665;40.108;18.302;2023-11-18T03:40:10;12.60;99.90
35563;DHT22;21665;40.108;18.302;2023-11-18T03:42:38;12.50;99.90
35563;DHT22;21665;40.108;18.302;2023-11-18T03:45:05;12.50;99.90
35563;DHT22;21665;40.108;18.302;2023-11-18T03:47:31;12.50;99.90
35563;DHT22;21665;40.108;18.302;2023-11-18T03:49:58;12.50;99.90
35563;DHT22;21665;40.108;18.302;2023-11-18T03:52:24;12.50;99.90
35563;DHT22;21665;40.108;18.302;2023-11-18T03:54:52;12.40;99.90
35563;DHT22;21665;40.108;18.302;2023-11-18T03:57:18;12.40;99.90
35563;DHT22;21665;40.108;18.302;2023-11-18T03:59:44;12.40;99.90
35563;DHT22;21665;40.108;18.302;2023-11-18T04:02:11;12.30;99.90
35563;DHT22;21665;40.108;18.302;2023-11-18T04:04:37;12.30;99.90
35563;DHT22;21665;40.108;18.302;2023-11-18T04:07:04;12.20;99.90
35563;DHT22;21665;40.108;18.302;2023-11-18T04:09:33;12.20;99.90
35563;DHT22;21665;40.108;18.302;2023-11-18T04:11:59;12.20;99.90
35563;DHT22;21665;40.108;18.302;2023-11-18T04:14:26;12.20;99.90
35563;DHT22;21665;40.108;18.302;2023-11-18T04:16:52;12.10;99.90
35563;DHT22;21665;40.108;18.302;2023-11-18T04:19:22;12.10;99.90
35563;DHT22;21665;40.108;18.302;2023-11-18T04:21:48;12.10;99.90
35563;DHT22;21665;40.108;18.302;2023-11-18T04:24:15;12.10;99.90
35563;DHT22;21665;40.108;18.302;2023-11-18T04:26:42;12.10;99.90
35563;DHT22;21665;40.108;18.302;2023-11-18T04:29:08;12.10;99.90
35563;DHT22;21665;40.108;18.302;2023-11-18T04:31:35;12.10;99.90
35563;DHT22;21665;40.108;18.302;2023-11-18T04:34:03;12.00;99.90
35563;DHT22;21665;40.108;18.302;2023-11-18T04:36:33;12.00;99.90
35563;DHT22;21665;40.108;18.302;2023-11-18T04:38:59;12.00;99.90
35563;DHT22;21665;40.108;18.302;2023-11-18T04:41:25;12.00;99.90
35563;DHT22;21665;40.108;18.302;2023-11-18T04:43:52;12.00;99.90
35563;DHT22;21665;40.108;18.302;2023-11-18T04:46:20;12.00;99.90
35563;DHT22;21665;40.108;18.302;2023-11-18T04:48:48;11.90;99.90
35563;DHT22;21665;40.108;18.302;2023-11-18T04:51:14;12.00;99.90
35563;DHT22;21665;40.108;18.302;2023-11-18T04:53:41;12.00;99.90
35563;DHT22;21665;40.108;18.302;2023-11-18T04:56:07;12.00;99.90
35563;DHT22;21665;40.108;18.302;2023-11-18T04:58:38;12.00;99.90
35563;DHT22;21665;40.108;18.302;2023-11-18T05:01:05;12.00;99.90
35563;DHT22;21665;40.108;18.302;2023-11-18T05:03:32;12.00;99.90
35563;DHT22;21665;40.108;18.302;2023-11-18T05:05:59;11.90;99.90
35563;DHT22;21665;40.108;18.302;2023-11-18T05:08:25;11.90;99.90
35563;DHT22;21665;40.108;18.302;2023-11-18T05:10:52;11.90;99.90
35563;DHT22;21665;40.108;18.302;2023-11-18T05:13:18;11.90;99.90
35563;DHT22;21665;40.108;18.302;2023-11-18T05:15:45;11.80;99.90
35563;DHT22;21665;40.108;18.302;2023-11-18T05:18:13;11.80;99.90
35563;DHT22;21665;40.108;18.302;2023-11-18T05:20:43;11.80;99.90
35563;DHT22;21665;40.108;18.302;2023-11-18T05:23:11;11.80;99.90
35563;DHT22;21665;40.108;18.302;2023-11-18T05:25:40;11.80;99.90
35563;DHT22;21665;40.108;18.302;2023-11-18T05:28:09;11.80;99.90
35563;DHT22;21665;40.108;18.302;2023-11-18T05:30:38;11.70;99.90
35563;DHT22;21665;40.108;18.302;2023-11-18T05:33:05;11.70;99.90
35563;DHT22;21665;40.108;18.302;2023-11-18T05:35:32;11.80;99.90
35563;DHT22;21665;40.108;18.302;2023-11-18T05:37:59;11.70;99.90
35563;DHT22;21665;40.108;18.302;2023-11-18T05:40:29;11.70;99.90
35563;DHT22;21665;40.108;18.302;2023-11-18T05:42:56;11.70;99.90
35563;DHT22;21665;40.108;18.302;2023-11-18T05:45:24;11.70;99.90
35563;DHT22;21665;40.108;18.302;2023-11-18T05:47:55;11.70;99.90
35563;DHT22;21665;40.108;18.302;2023-11-18T05:50:23;11.70;99.90
35563;DHT22;21665;40.108;18.302;2023-11-18T05:52:55;11.70;99.90
35563;DHT22;21665;40.108;18.302;2023-11-18T05:55:21;11.70;99.90
35563;DHT22;21665;40.108;18.302;2023-11-18T05:57:48;11.80;99.90
35563;DHT22;21665;40.108;18.302;2023-11-18T06:00:15;11.80;99.90
35563;DHT22;21665;40.108;18.302;2023-11-18T06:03:11;11.80;99.90
35563;DHT22;21665;40.108;18.302;2023-11-18T06:05:38;11.80;99.90
35563;DHT22;21665;40.108;18.302;2023-11-18T06:08:04;11.80;99.90
35563;DHT22;21665;40.108;18.302;2023-11-18T06:10:31;11.80;99.90
35563;DHT22;21665;40.108;18.302;2023-11-18T06:12:58;11.80;99.90
35563;DHT22;21665;40.108;18.302;2023-11-18T06:15:24;11.80;99.90
35563;DHT22;21665;40.108;18.302;2023-11-18T06:17:51;11.80;99.90
35563;DHT22;21665;40.108;18.302;2023-11-18T06:20:17;12.00;99.90
35563;DHT22;21665;40.108;18.302;2023-11-18T06:22:47;12.20;99.90
35563;DHT22;21665;40.108;18.302;2023-11-18T06:25:13;12.30;99.90
35563;DHT22;21665;40.108;18.302;2023-11-18T06:27:39;12.40;99.90
35563;DHT22;21665;40.108;18.302;2023-11-18T06:30:06;12.50;99.90
35563;DHT22;21665;40.108;18.302;2023-11-18T06:32:36;12.60;99.90
35563;DHT22;21665;40.108;18.302;2023-11-18T06:35:02;12.60;99.90
35563;DHT22;21665;40.108;18.302;2023-11-18T06:37:35;12.70;99.90
35563;DHT22;21665;40.108;18.302;2023-11-18T06:40:01;12.80;99.90
35563;DHT22;21665;40.108;18.302;2023-11-18T06:42:30;13.00;99.90
35563;DHT22;21665;40.108;18.302;2023-11-18T06:44:57;13.20;99.90
35563;DHT22;21665;40.108;18.302;2023-11-18T06:47:23;13.30;99.90
35563;DHT22;21665;40.108;18.302;2023-11-18T06:49:50;13.40;99.90
35563;DHT22;21665;40.108;18.302;2023-11-18T06:52:18;13.50;99.90
35563;DHT22;21665;40.108;18.302;2023-11-18T06:54:45;13.60;99.90
35563;DHT22;21665;40.108;18.302;2023-11-18T06:57:11;13.70;99.90
35563;DHT22;21665;40.108;18.302;2023-11-18T06:59:38;13.80;99.90
35563;DHT22;21665;40.108;18.302;2023-11-18T07:02:05;13.70;99.90
35563;DHT22;21665;40.108;18.302;2023-11-18T07:04:32;13.80;99.90
35563;DHT22;21665;40.108;18.302;2023-11-18T07:06:58;13.70;99.90
35563;DHT22;21665;40.108;18.302;2023-11-18T07:09:24;13.80;99.90
35563;DHT22;21665;40.108;18.302;2023-11-18T07:11:52;13.80;99.90
35563;DHT22;21665;40.108;18.302;2023-11-18T07:14:18;13.80;99.90
35563;DHT22;21665;40.108;18.302;2023-11-18T07:16:44;13.80;99.90
35563;DHT22;21665;40.108;18.302;2023-11-18T07:19:11;13.80;99.90
35563;DHT22;21665;40.108;18.302;2023-11-18T07:21:43;13.60;99.90
35563;DHT22;21665;40.108;18.302;2023-11-18T07:24:09;13.30;99.90
35563;DHT22;21665;40.108;18.302;2023-11-18T07:26:36;13.40;99.90
35563;DHT22;21665;40.108;18.302;2023-11-18T07:29:02;13.60;99.90
35563;DHT22;21665;40.108;18.302;2023-11-18T07:31:28;13.60;99.90
35563;DHT22;21665;40.108;18.302;2023-11-18T07:33:55;13.60;99.90
35563;DHT22;21665;40.108;18.302;2023-11-18T07:36:22;13.70;99.90
35563;DHT22;21665;40.108;18.302;2023-11-18T07:38:48;13.70;99.90
35563;DHT22;21665;40.108;18.302;2023-11-18T07:41:16;13.50;99.90
35563;DHT22;21665;40.108;18.302;2023-11-18T07:44:01;13.50;99.90
35563;DHT22;21665;40.108;18.302;2023-11-18T07:46:27;13.50;99.90
35563;DHT22;21665;40.108;18.302;2023-11-18T07:48:56;13.80;99.90
35563;DHT22;21665;40.108;18.302;2023-11-18T07:51:23;13.60;99.90
35563;DHT22;21665;40.108;18.302;2023-11-18T07:53:51;13.60;99.90
35563;DHT22;21665;40.108;18.302;2023-11-18T07:56:19;13.60;99.90
35563;DHT22;21665;40.108;18.302;2023-11-18T07:58:48;13.50;99.90
35563;DHT22;21665;40.108;18.302;2023-11-18T08:01:15;13.50;99.90
35563;DHT22;21665;40.108;18.302;2023-11-18T08:03:45;13.50;99.90
35563;DHT22;21665;40.108;18.302;2023-11-18T08:06:11;13.60;99.90
35563;DHT22;21665;40.108;18.302;2023-11-18T08:08:38;13.70;99.90
35563;DHT22;21665;40.108;18.302;2023-11-18T08:11:06;13.80;99.90
35563;DHT22;21665;40.108;18.302;2023-11-18T08:13:34;13.80;99.90
35563;DHT22;21665;40.108;18.302;2023-11-18T08:16:01;13.70;99.90
35563;DHT22;21665;40.108;18.302;2023-11-18T08:18:27;13.90;99.90
35563;DHT22;21665;40.108;18.302;2023-11-18T08:20:57;14.00;99.90
35563;DHT22;21665;40.108;18.302;2023-11-18T08:23:26;14.00;99.90
35563;DHT22;21665;40.108;18.302;2023-11-18T08:25:54;14.00;99.90
35563;DHT22;21665;40.108;18.302;2023-11-18T08:28:21;14.00;99.90
35563;DHT22;21665;40.108;18.302;2023-11-18T08:30:48;13.80;99.90
35563;DHT22;21665;40.108;18.302;2023-11-18T08:33:15;13.90;99.90
35563;DHT22;21665;40.108;18.302;2023-11-18T08:35:41;14.00;99.90
35563;DHT22;21665;40.108;18.302;2023-11-18T08:38:08;13.90;99.90
35563;DHT22;21665;40.108;18.302;2023-11-18T08:40:39;13.80;99.90
35563;DHT22;21665;40.108;18.302;2023-11-18T08:43:05;13.60;99.90
35563;DHT22;21665;40.108;18.302;2023-11-18T08:45:33;13.40;99.90
35563;DHT22;21665;40.108;18.302;2023-11-18T08:48:02;13.20;99.90
35563;DHT22;21665;40.108;18.302;2023-11-18T08:50:38;13.40;99.90
35563;DHT22;21665;40.108;18.302;2023-11-18T08:53:09;13.70;99.90
35563;DHT22;21665;40.108;18.302;2023-11-18T08:55:35;13.80;99.90
35563;DHT22;21665;40.108;18.302;2023-11-18T08:58:09;13.70;99.90
35563;DHT22;21665;40.108;18.302;2023-11-18T09:00:50;13.40;99.90
35563;DHT22;21665;40.108;18.302;2023-11-18T09:03:23;13.40;99.90
35563;DHT22;21665;40.108;18.302;2023-11-18T09:06:16;13.60;99.90
35563;DHT22;21665;40.108;18.302;2023-11-18T09:08:52;13.70;99.90
35563;DHT22;21665;40.108;18.302;2023-11-18T09:11:19;13.70;99.90
35563;DHT22;21665;40.108;18.302;2023-11-18T09:13:48;13.80;99.90
35563;DHT22;21665;40.108;18.302;2023-11-18T09:16:16;13.90;99.90
35563;DHT22;21665;40.108;18.302;2023-11-18T09:18:43;14.00;99.90
35563;DHT22;21665;40.108;18.302;2023-11-18T09:21:20;14.00;99.90
35563;DHT22;21665;40.108;18.302;2023-11-18T09:23:51;13.80;99.90
35563;DHT22;21665;40.108;18.302;2023-11-18T09:26:18;13.90;99.90
35563;DHT22;21665;40.108;18.302;2023-11-18T09:28:44;13.90;99.90
35563;DHT22;21665;40.108;18.302;2023-11-18T09:31:12;13.80;99.90
35563;DHT22;21665;40.108;18.302;2023-11-18T09:33:40;13.80;99.90
35563;DHT22;21665;40.108;18.302;2023-11-18T09:36:19;14.00;99.90
35563;DHT22;21665;40.108;18.302;2023-11-18T09:38:46;14.10;99.90
35563;DHT22;21665;40.108;18.302;2023-11-18T09:41:13;14.00;99.90
35563;DHT22;21665;40.108;18.302;2023-11-18T09:43:41;14.00;99.90
35563;DHT22;21665;40.108;18.302;2023-11-18T09:46:14;13.90;99.90
35563;DHT22;21665;40.108;18.302;2023-11-18T09:48:46;13.90;99.90
35563;DHT22;21665;40.108;18.302;2023-11-18T09:51:22;13.90;99.90
35563;DHT22;21665;40.108;18.302;2023-11-18T09:53:51;13.90;99.90
35563;DHT22;21665;40.108;18.302;2023-11-18T09:56:31;13.90;99.90
35563;DHT22;21665;40.108;18.302;2023-11-18T09:59:31;13.90;99.90
35563;DHT22;21665;40.108;18.302;2023-11-18T10:02:11;13.80;99.90
35563;DHT22;21665;40.108;18.302;2023-11-18T10:04:48;13.80;99.90
35563;DHT22;21665;40.108;18.302;2023-11-18T10:07:25;13.90;99.90
35563;DHT22;21665;40.108;18.302;2023-11-18T10:10:00;13.80;99.90
35563;DHT22;21665;40.108;18.302;2023-11-18T10:12:27;13.70;99.90
35563;DHT22;21665;40.108;18.302;2023-11-18T10:14:55;13.70;99.90
35563;DHT22;21665;40.108;18.302;2023-11-18T10:17:25;13.70;99.90
35563;DHT22;21665;40.108;18.302;2023-11-18T10:19:55;13.80;99.90
35563;DHT22;21665;40.108;18.302;2023-11-18T10:22:27;13.80;99.90
35563;DHT22;21665;40.108;18.302;2023-11-18T10:24:56;13.90;99.90
35563;DHT22;21665;40.108;18.302;2023-11-18T10:27:27;13.90;99.90
35563;DHT22;21665;40.108;18.302;2023-11-18T10:30:04;13.90;99.90
35563;DHT22;21665;40.108;18.302;2023-11-18T10:32:31;14.10;99.90
35563;DHT22;21665;40.108;18.302;2023-11-18T10:35:08;14.00;99.90
35563;DHT22;21665;40.108;18.302;2023-11-18T10:37:40;13.90;99.90
35563;DHT22;21665;40.108;18.302;2023-11-18T10:40:10;14.00;99.90
35563;DHT22;21665;40.108;18.302;2023-11-18T10:42:41;14.00;99.90
35563;DHT22;21665;40.108;18.302;2023-11-18T10:45:11;14.00;99.90
35563;DHT22;21665;40.108;18.302;2023-11-18T10:47:43;13.90;99.90
35563;DHT22;21665;40.108;18.302;2023-11-18T10:50:09;13.90;99.90
35563;DHT22;21665;40.108;18.302;2023-11-18T10:52:36;14.00;99.90
35563;DHT22;21665;40.108;18.302;2023-11-18T10:55:07;13.90;99.90
35563;DHT22;21665;40.108;18.302;2023-11-18T10:57:37;14.00;99.90
35563;DHT22;21665;40.108;18.302;2023-11-18T11:00:06;14.10;99.90
35563;DHT22;21665;40.108;18.302;2023-11-18T11:02:45;14.00;99.90
35563;DHT22;21665;40.108;18.302;2023-11-18T11:05:31;14.00;99.90
35563;DHT22;21665;40.108;18.302;2023-11-18T11:07:58;14.00;99.90
35563;DHT22;21665;40.108;18.302;2023-11-18T11:10:26;14.00;99.90
35563;DHT22;21665;40.108;18.302;2023-11-18T11:12:59;14.00;99.90
35563;DHT22;21665;40.108;18.302;2023-11-18T11:15:41;14.00;99.90
35563;DHT22;21665;40.108;18.302;2023-11-18T11:18:12;13.90;99.90
35563;DHT22;21665;40.108;18.302;2023-11-18T11:21:14;14.00;99.90
35563;DHT22;21665;40.108;18.302;2023-11-18T11:24:04;14.00;99.90
35563;DHT22;21665;40.108;18.302;2023-11-18T11:26:50;14.20;99.90
35563;DHT22;21665;40.108;18.302;2023-11-18T11:29:51;14.10;99.90
35563;DHT22;21665;40.108;18.302;2023-11-18T11:32:28;13.90;99.90
35563;DHT22;21665;40.108;18.302;2023-11-18T11:35:01;13.90;99.90
35563;DHT22;21665;40.108;18.302;2023-11-18T11:37:34;14.00;99.90
35563;DHT22;21665;40.108;18.302;2023-11-18T11:40:04;14.00;99.90
35563;DHT22;21665;40.108;18.302;2023-11-18T11:42:37;14.10;99.90
35563;DHT22;21665;40.108;18.302;2023-11-18T11:45:06;14.10;99.90
35563;DHT22;21665;40.108;18.302;2023-11-18T11:47:50;14.10;99.90
35563;DHT22;21665;40.108;18.302;2023-11-18T11:50:32;14.10;99.90
35563;DHT22;21665;40.108;18.302;2023-11-18T11:53:10;14.20;99.90
35563;DHT22;21665;40.108;18.302;2023-11-18T11:55:50;14.10;99.90
35563;DHT22;21665;40.108;18.302;2023-11-18T11:58:39;14.10;99.90
35563;DHT22;21665;40.108;18.302;2023-11-18T12:01:27;13.90;99.90
35563;DHT22;21665;40.108;18.302;2023-11-18T12:03:58;13.90;99.90
35563;DHT22;21665;40.108;18.302;2023-11-18T12:06:33;13.90;99.90
35563;DHT22;21665;40.108;18.302;2023-11-18T12:09:04;14.10;99.90
35563;DHT22;21665;40.108;18.302;2023-11-18T12:11:36;14.20;99.90
35563;DHT22;21665;40.108;18.302;2023-11-18T12:14:09;14.10;99.90
35563;DHT22;21665;40.108;18.302;2023-11-18T12:17:06;14.00;99.90
35563;DHT22;21665;40.108;18.302;2023-11-18T12:19:49;13.90;99.90
35563;DHT22;21665;40.108;18.302;2023-11-18T12:22:17;13.80;99.90
35563;DHT22;21665;40.108;18.302;2023-11-18T12:32:59;13.70;99.90
35563;DHT22;21665;40.108;18.302;2023-11-18T12:41:35;13.70;99.90
35563;DHT22;21665;40.108;18.302;2023-11-18T12:46:51;13.70;99.90
35563;DHT22;21665;40.108;18.302;2023-11-18T12:49:23;13.70;99.90
35563;DHT22;21665;40.108;18.302;2023-11-18T12:51:52;13.70;99.90
35563;DHT22;21665;40.108;18.302;2023-11-18T12:54:20;13.70;99.90
35563;DHT22;21665;40.108;18.302;2023-11-18T12:56:48;13.70;99.90
35563;DHT22;21665;40.108;18.302;2023-11-18T12:59:16;13.70;99.90
35563;DHT22;21665;40.108;18.302;2023-11-18T13:01:53;13.70;99.90
35563;DHT22;21665;40.108;18.302;2023-11-18T13:04:23;13.80;99.90
35563;DHT22;21665;40.108;18.302;2023-11-18T13:06:54;13.80;99.90
35563;DHT22;21665;40.108;18.302;2023-11-18T13:09:24;13.80;99.90
35563;DHT22;21665;40.108;18.302;2023-11-18T13:11:59;13.80;99.90
35563;DHT22;21665;40.108;18.302;2023-11-18T13:14:33;13.90;99.90
35563;DHT22;21665;40.108;18.302;2023-11-18T13:17:04;14.00;99.90
35563;DHT22;21665;40.108;18.302;2023-11-18T13:19:35;14.00;99.90
35563;DHT22;21665;40.108;18.302;2023-11-18T13:22:03;13.80;99.90
35563;DHT22;21665;40.108;18.302;2023-11-18T13:24:31;13.80;99.90
35563;DHT22;21665;40.108;18.302;2023-11-18T13:27:02;13.80;99.90
35563;DHT22;21665;40.108;18.302;2023-11-18T13:29:33;13.80;99.90
35563;DHT22;21665;40.108;18.302;2023-11-18T13:32:02;13.80;99.90
35563;DHT22;21665;40.108;18.302;2023-11-18T13:34:36;13.70;99.90
35563;DHT22;21665;40.108;18.302;2023-11-18T13:37:05;13.60;99.90
35563;DHT22;21665;40.108;18.302;2023-11-18T13:39:33;13.70;99.90
35563;DHT22;21665;40.108;18.302;2023-11-18T13:42:21;13.60;99.90
35563;DHT22;21665;40.108;18.302;2023-11-18T13:44:50;13.60;99.90
35563;DHT22;21665;40.108;18.302;2023-11-18T13:47:18;13.60;99.90
35563;DHT22;21665;40.108;18.302;2023-11-18T13:49:49;13.60;99.90
35563;DHT22;21665;40.108;18.302;2023-11-18T13:52:17;13.60;99.90
35563;DHT22;21665;40.108;18.302;2023-11-18T13:54:46;13.60;99.90
35563;DHT22;21665;40.108;18.302;2023-11-18T13:57:13;13.60;99.90
35563;DHT22;21665;40.108;18.302;2023-11-18T13:59:40;13.60;99.90
35563;DHT22;21665;40.108;18.302;2023-11-18T14:02:09;13.60;99.90
35563;DHT22;21665;40.108;18.302;2023-11-18T14:04:36;13.60;99.90
35563;DHT22;21665;40.108;18.302;2023-11-18T14:07:04;13.60;99.90
35563;DHT22;21665;40.108;18.302;2023-11-18T14:09:36;13.50;99.90
35563;DHT22;21665;40.108;18.302;2023-11-18T14:12:07;13.50;99.90
35563;DHT22;21665;40.108;18.302;2023-11-18T14:14:35;13.50;99.90
35563;DHT22;21665;40.108;18.302;2023-11-18T14:17:03;13.50;99.90
35563;DHT22;21665;40.108;18.302;2023-11-18T14:19:32;13.40;99.90
35563;DHT22;21665;40.108;18.302;2023-11-18T14:22:05;13.40;99.90
35563;DHT22;21665;40.108;18.302;2023-11-18T14:24:36;13.50;99.90
35563;DHT22;21665;40.108;18.302;2023-11-18T14:27:02;13.40;99.90
35563;DHT22;21665;40.108;18.302;2023-11-18T14:29:31;13.40;99.90
35563;DHT22;21665;40.108;18.302;2023-11-18T14:31:57;13.40;99.90
35563;DHT22;21665;40.108;18.302;2023-11-18T14:34:25;13.40;99.90
35563;DHT22;21665;40.108;18.302;2023-11-18T14:36:52;13.30;99.90
35563;DHT22;21665;40.108;18.302;2023-11-18T14:39:22;13.30;99.90
35563;DHT22;21665;40.108;18.302;2023-11-18T14:41:48;13.30;99.90
35563;DHT22;21665;40.108;18.302;2023-11-18T14:44:15;13.30;99.90
35563;DHT22;21665;40.108;18.302;2023-11-18T14:46:43;13.30;99.90
35563;DHT22;21665;40.108;18.302;2023-11-18T14:49:11;13.20;99.90
35563;DHT22;21665;40.108;18.302;2023-11-18T14:51:38;13.20;99.90
35563;DHT22;21665;40.108;18.302;2023-11-18T14:54:04;13.20;99.90
35563;DHT22;21665;40.108;18.302;2023-11-18T14:56:34;13.20;99.90
35563;DHT22;21665;40.108;18.302;2023-11-18T14:59:01;13.10;99.90
35563;DHT22;21665;40.108;18.302;2023-11-18T15:01:27;13.10;99.90
35563;DHT22;21665;40.108;18.302;2023-11-18T15:03:54;13.10;99.90
35563;DHT22;21665;40.108;18.302;2023-11-18T15:06:26;13.00;99.90
35563;DHT22;21665;40.108;18.302;2023-11-18T15:08:52;13.00;99.90
35563;DHT22;21665;40.108;18.302;2023-11-18T15:11:23;12.90;99.90
35563;DHT22;21665;40.108;18.302;2023-11-18T15:13:50;12.90;99.90
35563;DHT22;21665;40.108;18.302;2023-11-18T15:16:19;12.90;99.90
35563;DHT22;21665;40.108;18.302;2023-11-18T15:18:45;12.90;99.90
35563;DHT22;21665;40.108;18.302;2023-11-18T15:21:18;12.90;99.90
35563;DHT22;21665;40.108;18.302;2023-11-18T15:23:44;12.80;99.90
35563;DHT22;21665;40.108;18.302;2023-11-18T15:26:11;12.80;99.90
35563;DHT22;21665;40.108;18.302;2023-11-18T15:28:37;12.80;99.90
35563;DHT22;21665;40.108;18.302;2023-11-18T15:31:04;12.80;99.90
35563;DHT22;21665;40.108;18.302;2023-11-18T15:33:30;12.70;99.90
35563;DHT22;21665;40.108;18.302;2023-11-18T15:35:57;12.70;99.90
35563;DHT22;21665;40.108;18.302;2023-11-18T15:38:23;12.80;99.90
35563;DHT22;21665;40.108;18.302;2023-11-18T15:40:50;12.80;99.90
35563;DHT22;21665;40.108;18.302;2023-11-18T15:43:16;12.80;99.90
35563;DHT22;21665;40.108;18.302;2023-11-18T15:45:43;12.80;99.90
35563;DHT22;21665;40.108;18.302;2023-11-18T15:48:12;12.70;99.90
35563;DHT22;21665;40.108;18.302;2023-11-18T15:50:40;12.70;99.90